首页
METAR-TAF:

METAR-TAF

机场 :

曼彻斯特机场

曼彻斯特, 英格兰

纬度: 53-21N, 经度: 002-17W, 海拔: 69米

当前天气观测

该预报发布于18分钟前的08:50 UTC
风速5节,风向,在东转东南西之间变化
温度 9°C
湿度 87%
气压 1004 hPa
能见度10公里或以上

METAR: EGCC 170850Z AUTO 17005KT 110V280 9999 NCD 09/07 Q1004 NOSIG

时间: 10:08 (09:08 UTC)

预报

该预报发布于4小时和7分钟前的05:01 UTC
预报有效从17日的 06点(UTC)到 18日的 12点(UTC)
风速8节,风向
能见度10公里或以上
少量云层高于3500英尺
短暂存在
从 17日的 13点(UTC)到 18日的 03点(UTC)
能見度: 7000
阵雨
几率 30% :
短暂存在
从 17日的 14点(UTC)到 17日的 19点(UTC)
能見度: 3000
大阵雨
短暂存在
从 17日的 23点(UTC)到 18日的 06点(UTC)
多云层高于1000英尺

TAF: EGCC 170501Z 1706/1812 17008KT 9999 FEW035 TEMPO 1713/1803 7000 SHRA PROB30 TEMPO 1714/1719 3000 +SHRA TEMPO 1723/1806 BKN010

超过4000个机场的气象观测和天气预报(METAR&TAF报告)。

可查询的气象台以黄色和红色小点在地图上表示。

将鼠标移到小点上方,可查看气象台名称。

然后点击查看天气观测和预报。

如需切换地图:点击带黑十字的绿色按钮放大地图;点击带横线的绿色按钮缩小地图;或者点击绿色箭头查看邻近地区的地图。


METAR-TAF: